sensor_id;sensor_type;location;lat;lon;timestamp;temperature;humidity
40808;DHT22;26523;52.504;13.498;2023-08-30T00:00:58;14.40;99.90
40808;DHT22;26523;52.504;13.498;2023-08-30T00:03:23;14.40;99.90
40808;DHT22;26523;52.504;13.498;2023-08-30T00:05:49;14.50;99.90
40808;DHT22;26523;52.504;13.498;2023-08-30T00:08:15;14.50;99.90
40808;DHT22;26523;52.504;13.498;2023-08-30T00:10:45;14.50;99.90
40808;DHT22;26523;52.504;13.498;2023-08-30T00:13:11;14.50;99.90
40808;DHT22;26523;52.504;13.498;2023-08-30T00:15:37;14.60;99.90
40808;DHT22;26523;52.504;13.498;2023-08-30T00:18:02;14.60;99.90
40808;DHT22;26523;52.504;13.498;2023-08-30T00:20:28;14.50;99.90
40808;DHT22;26523;52.504;13.498;2023-08-30T00:22:54;14.50;99.90
40808;DHT22;26523;52.504;13.498;2023-08-30T00:25:20;14.60;99.90
40808;DHT22;26523;52.504;13.498;2023-08-30T00:27:45;14.60;99.90
40808;DHT22;26523;52.504;13.498;2023-08-30T00:30:11;14.60;99.90
40808;DHT22;26523;52.504;13.498;2023-08-30T00:32:37;14.60;99.90
40808;DHT22;26523;52.504;13.498;2023-08-30T00:35:03;14.60;99.90
40808;DHT22;26523;52.504;13.498;2023-08-30T00:37:29;14.60;99.90
40808;DHT22;26523;52.504;13.498;2023-08-30T00:39:54;14.60;99.90
40808;DHT22;26523;52.504;13.498;2023-08-30T00:42:20;14.60;99.90
40808;DHT22;26523;52.504;13.498;2023-08-30T00:44:46;14.60;99.90
40808;DHT22;26523;52.504;13.498;2023-08-30T00:47:11;14.60;99.90
40808;DHT22;26523;52.504;13.498;2023-08-30T00:49:37;14.60;99.90
40808;DHT22;26523;52.504;13.498;2023-08-30T00:52:07;14.60;99.90
40808;DHT22;26523;52.504;13.498;2023-08-30T00:54:34;14.60;99.90
40808;DHT22;26523;52.504;13.498;2023-08-30T00:57:00;14.60;99.90
40808;DHT22;26523;52.504;13.498;2023-08-30T00:59:27;14.50;99.90
40808;DHT22;26523;52.504;13.498;2023-08-30T01:01:53;14.40;99.90
40808;DHT22;26523;52.504;13.498;2023-08-30T01:04:20;14.50;99.90
40808;DHT22;26523;52.504;13.498;2023-08-30T01:06:46;14.50;99.90
40808;DHT22;26523;52.504;13.498;2023-08-30T01:09:11;14.50;99.90
40808;DHT22;26523;52.504;13.498;2023-08-30T01:17:48;14.50;99.90
40808;DHT22;26523;52.504;13.498;2023-08-30T01:20:15;14.40;99.90
40808;DHT22;26523;52.504;13.498;2023-08-30T01:23:06;14.50;99.90
40808;DHT22;26523;52.504;13.498;2023-08-30T01:25:48;14.40;99.90
40808;DHT22;26523;52.504;13.498;2023-08-30T01:28:21;14.50;99.90
40808;DHT22;26523;52.504;13.498;2023-08-30T01:30:48;14.40;99.90
40808;DHT22;26523;52.504;13.498;2023-08-30T01:33:16;14.40;99.90
40808;DHT22;26523;52.504;13.498;2023-08-30T01:35:44;14.40;99.90
40808;DHT22;26523;52.504;13.498;2023-08-30T01:38:10;14.40;99.90
40808;DHT22;26523;52.504;13.498;2023-08-30T01:40:41;14.40;99.90
40808;DHT22;26523;52.504;13.498;2023-08-30T01:43:08;14.50;99.90
40808;DHT22;26523;52.504;13.498;2023-08-30T01:45:41;14.40;99.90
40808;DHT22;26523;52.504;13.498;2023-08-30T01:48:10;14.50;99.90
40808;DHT22;26523;52.504;13.498;2023-08-30T01:50:36;14.40;99.90
40808;DHT22;26523;52.504;13.498;2023-08-30T01:53:03;14.40;99.90
40808;DHT22;26523;52.504;13.498;2023-08-30T01:55:31;14.30;99.90
40808;DHT22;26523;52.504;13.498;2023-08-30T01:57:57;14.40;99.90
40808;DHT22;26523;52.504;13.498;2023-08-30T02:00:23;14.40;99.90
40808;DHT22;26523;52.504;13.498;2023-08-30T02:02:49;14.40;99.90
40808;DHT22;26523;52.504;13.498;2023-08-30T02:05:14;14.40;99.90
40808;DHT22;26523;52.504;13.498;2023-08-30T02:10:33;14.40;99.90
40808;DHT22;26523;52.504;13.498;2023-08-30T02:13:00;14.30;99.90
40808;DHT22;26523;52.504;13.498;2023-08-30T02:15:27;14.30;99.90
40808;DHT22;26523;52.504;13.498;2023-08-30T02:17:53;14.30;99.90
40808;DHT22;26523;52.504;13.498;2023-08-30T02:20:20;14.30;99.90
40808;DHT22;26523;52.504;13.498;2023-08-30T02:22:45;14.30;99.90
40808;DHT22;26523;52.504;13.498;2023-08-30T02:25:12;14.30;99.90
40808;DHT22;26523;52.504;13.498;2023-08-30T02:27:37;14.30;99.90
40808;DHT22;26523;52.504;13.498;2023-08-30T02:30:03;14.30;99.90
40808;DHT22;26523;52.504;13.498;2023-08-30T02:32:31;14.30;99.90
40808;DHT22;26523;52.504;13.498;2023-08-30T02:34:56;14.40;99.90
40808;DHT22;26523;52.504;13.498;2023-08-30T02:37:22;14.30;99.90
40808;DHT22;26523;52.504;13.498;2023-08-30T02:39:48;14.20;99.90
40808;DHT22;26523;52.504;13.498;2023-08-30T02:42:14;14.20;99.90
40808;DHT22;26523;52.504;13.498;2023-08-30T02:44:39;14.20;99.90
40808;DHT22;26523;52.504;13.498;2023-08-30T02:47:05;14.20;99.90
40808;DHT22;26523;52.504;13.498;2023-08-30T02:49:31;14.30;99.90
40808;DHT22;26523;52.504;13.498;2023-08-30T02:51:56;14.30;99.90
40808;DHT22;26523;52.504;13.498;2023-08-30T02:54:22;14.30;99.90
40808;DHT22;26523;52.504;13.498;2023-08-30T02:56:49;14.30;99.90
40808;DHT22;26523;52.504;13.498;2023-08-30T02:59:15;14.30;99.90
40808;DHT22;26523;52.504;13.498;2023-08-30T03:01:41;14.30;99.90
40808;DHT22;26523;52.504;13.498;2023-08-30T03:04:07;14.30;99.90
40808;DHT22;26523;52.504;13.498;2023-08-30T03:06:35;14.30;99.90
40808;DHT22;26523;52.504;13.498;2023-08-30T03:09:01;14.20;99.90
40808;DHT22;26523;52.504;13.498;2023-08-30T03:11:32;14.20;99.90
40808;DHT22;26523;52.504;13.498;2023-08-30T03:13:57;14.10;99.90
40808;DHT22;26523;52.504;13.498;2023-08-30T03:16:23;14.10;99.90
40808;DHT22;26523;52.504;13.498;2023-08-30T03:18:50;14.10;99.90
40808;DHT22;26523;52.504;13.498;2023-08-30T03:21:17;14.00;99.90
40808;DHT22;26523;52.504;13.498;2023-08-30T03:23:43;14.00;99.90
40808;DHT22;26523;52.504;13.498;2023-08-30T03:26:14;13.90;99.90
40808;DHT22;26523;52.504;13.498;2023-08-30T03:28:42;13.90;99.90
40808;DHT22;26523;52.504;13.498;2023-08-30T03:31:29;13.80;99.90
40808;DHT22;26523;52.504;13.498;2023-08-30T03:33:55;13.90;99.90
40808;DHT22;26523;52.504;13.498;2023-08-30T03:36:20;13.80;99.90
40808;DHT22;26523;52.504;13.498;2023-08-30T03:38:46;13.80;99.90
40808;DHT22;26523;52.504;13.498;2023-08-30T03:41:13;13.70;99.90
40808;DHT22;26523;52.504;13.498;2023-08-30T03:43:41;13.70;99.90
40808;DHT22;26523;52.504;13.498;2023-08-30T03:46:08;13.70;99.90
40808;DHT22;26523;52.504;13.498;2023-08-30T03:48:36;13.70;99.90
40808;DHT22;26523;52.504;13.498;2023-08-30T03:51:03;13.60;99.90
40808;DHT22;26523;52.504;13.498;2023-08-30T03:53:29;13.60;99.90
40808;DHT22;26523;52.504;13.498;2023-08-30T03:55:55;13.60;99.90
40808;DHT22;26523;52.504;13.498;2023-08-30T03:58:21;13.60;99.90
40808;DHT22;26523;52.504;13.498;2023-08-30T04:00:47;13.60;99.90
40808;DHT22;26523;52.504;13.498;2023-08-30T04:03:15;13.60;99.90
40808;DHT22;26523;52.504;13.498;2023-08-30T04:05:41;13.60;99.90
40808;DHT22;26523;52.504;13.498;2023-08-30T04:08:08;13.60;99.90
40808;DHT22;26523;52.504;13.498;2023-08-30T04:10:39;13.60;99.90
40808;DHT22;26523;52.504;13.498;2023-08-30T04:13:05;13.60;99.90
40808;DHT22;26523;52.504;13.498;2023-08-30T04:15:35;13.60;99.90
40808;DHT22;26523;52.504;13.498;2023-08-30T04:18:02;13.60;99.90
40808;DHT22;26523;52.504;13.498;2023-08-30T04:20:28;13.70;99.90
40808;DHT22;26523;52.504;13.498;2023-08-30T04:23:14;13.70;99.90
40808;DHT22;26523;52.504;13.498;2023-08-30T04:25:40;13.60;99.90
40808;DHT22;26523;52.504;13.498;2023-08-30T04:28:06;13.60;99.90
40808;DHT22;26523;52.504;13.498;2023-08-30T04:30:35;13.60;99.90
40808;DHT22;26523;52.504;13.498;2023-08-30T04:33:00;13.60;99.90
40808;DHT22;26523;52.504;13.498;2023-08-30T04:35:29;13.60;99.90
40808;DHT22;26523;52.504;13.498;2023-08-30T04:37:55;13.70;99.90
40808;DHT22;26523;52.504;13.498;2023-08-30T04:40:22;13.60;99.90
40808;DHT22;26523;52.504;13.498;2023-08-30T04:42:47;13.70;99.90
40808;DHT22;26523;52.504;13.498;2023-08-30T04:45:13;13.70;99.90
40808;DHT22;26523;52.504;13.498;2023-08-30T04:47:38;13.70;99.90
40808;DHT22;26523;52.504;13.498;2023-08-30T04:50:04;13.80;99.90
40808;DHT22;26523;52.504;13.498;2023-08-30T04:52:31;13.80;99.90
40808;DHT22;26523;52.504;13.498;2023-08-30T04:54:56;13.80;99.90
40808;DHT22;26523;52.504;13.498;2023-08-30T04:57:22;13.90;99.90
40808;DHT22;26523;52.504;13.498;2023-08-30T04:59:48;13.90;99.90
40808;DHT22;26523;52.504;13.498;2023-08-30T05:02:13;14.00;99.90
40808;DHT22;26523;52.504;13.498;2023-08-30T05:04:39;14.10;99.90
40808;DHT22;26523;52.504;13.498;2023-08-30T05:07:06;14.10;99.90
40808;DHT22;26523;52.504;13.498;2023-08-30T05:09:32;14.20;99.90
40808;DHT22;26523;52.504;13.498;2023-08-30T05:12:00;14.30;99.90
40808;DHT22;26523;52.504;13.498;2023-08-30T05:14:26;14.40;99.90
40808;DHT22;26523;52.504;13.498;2023-08-30T05:16:53;14.50;99.90
40808;DHT22;26523;52.504;13.498;2023-08-30T05:19:19;14.50;99.90
40808;DHT22;26523;52.504;13.498;2023-08-30T05:21:46;14.60;99.90
40808;DHT22;26523;52.504;13.498;2023-08-30T05:24:11;14.70;99.90
40808;DHT22;26523;52.504;13.498;2023-08-30T05:26:37;14.80;99.90
40808;DHT22;26523;52.504;13.498;2023-08-30T05:29:04;14.90;99.90
40808;DHT22;26523;52.504;13.498;2023-08-30T05:31:30;14.90;99.90
40808;DHT22;26523;52.504;13.498;2023-08-30T05:33:56;15.00;99.90
40808;DHT22;26523;52.504;13.498;2023-08-30T05:36:22;15.00;99.90
40808;DHT22;26523;52.504;13.498;2023-08-30T05:38:47;15.10;99.90
40808;DHT22;26523;52.504;13.498;2023-08-30T05:41:13;15.10;99.90
40808;DHT22;26523;52.504;13.498;2023-08-30T05:43:39;15.20;99.90
40808;DHT22;26523;52.504;13.498;2023-08-30T05:46:04;15.30;99.90
40808;DHT22;26523;52.504;13.498;2023-08-30T05:48:30;15.30;99.90
40808;DHT22;26523;52.504;13.498;2023-08-30T05:50:59;15.40;99.90
40808;DHT22;26523;52.504;13.498;2023-08-30T05:53:24;15.60;99.90
40808;DHT22;26523;52.504;13.498;2023-08-30T05:55:52;15.60;99.90
40808;DHT22;26523;52.504;13.498;2023-08-30T05:58:18;15.70;99.90
40808;DHT22;26523;52.504;13.498;2023-08-30T06:00:45;15.90;99.90
40808;DHT22;26523;52.504;13.498;2023-08-30T06:03:10;16.10;99.90
40808;DHT22;26523;52.504;13.498;2023-08-30T06:05:36;16.30;99.90
40808;DHT22;26523;52.504;13.498;2023-08-30T06:08:02;16.50;99.90
40808;DHT22;26523;52.504;13.498;2023-08-30T06:10:28;16.70;99.90
40808;DHT22;26523;52.504;13.498;2023-08-30T06:12:53;16.90;99.90
40808;DHT22;26523;52.504;13.498;2023-08-30T06:15:20;17.20;99.90
40808;DHT22;26523;52.504;13.498;2023-08-30T06:17:46;17.40;99.90
40808;DHT22;26523;52.504;13.498;2023-08-30T06:20:12;17.50;99.90
40808;DHT22;26523;52.504;13.498;2023-08-30T06:22:38;17.50;99.90
40808;DHT22;26523;52.504;13.498;2023-08-30T06:25:04;17.50;99.90
40808;DHT22;26523;52.504;13.498;2023-08-30T06:27:32;17.50;99.90
40808;DHT22;26523;52.504;13.498;2023-08-30T06:29:58;17.40;99.90
40808;DHT22;26523;52.504;13.498;2023-08-30T06:32:24;17.30;99.90
40808;DHT22;26523;52.504;13.498;2023-08-30T06:34:49;17.30;99.90
40808;DHT22;26523;52.504;13.498;2023-08-30T06:37:15;17.40;99.90
40808;DHT22;26523;52.504;13.498;2023-08-30T06:39:41;17.30;99.90
40808;DHT22;26523;52.504;13.498;2023-08-30T06:42:06;17.30;99.90
40808;DHT22;26523;52.504;13.498;2023-08-30T06:44:33;17.30;99.90
40808;DHT22;26523;52.504;13.498;2023-08-30T06:47:01;17.20;99.90
40808;DHT22;26523;52.504;13.498;2023-08-30T06:49:28;17.30;99.90
40808;DHT22;26523;52.504;13.498;2023-08-30T06:51:56;17.30;99.90
40808;DHT22;26523;52.504;13.498;2023-08-30T06:54:22;17.30;99.90
40808;DHT22;26523;52.504;13.498;2023-08-30T06:57:00;17.50;99.90
40808;DHT22;26523;52.504;13.498;2023-08-30T06:59:27;17.50;99.90
40808;DHT22;26523;52.504;13.498;2023-08-30T07:01:53;17.50;99.90
40808;DHT22;26523;52.504;13.498;2023-08-30T07:04:19;17.50;99.90
40808;DHT22;26523;52.504;13.498;2023-08-30T07:06:45;17.60;99.90
40808;DHT22;26523;52.504;13.498;2023-08-30T07:09:11;17.50;99.90
40808;DHT22;26523;52.504;13.498;2023-08-30T07:11:37;17.50;99.90
40808;DHT22;26523;52.504;13.498;2023-08-30T07:14:03;17.60;99.90
40808;DHT22;26523;52.504;13.498;2023-08-30T07:16:30;17.60;99.90
40808;DHT22;26523;52.504;13.498;2023-08-30T07:18:57;17.70;99.90
40808;DHT22;26523;52.504;13.498;2023-08-30T07:21:23;17.80;99.90
40808;DHT22;26523;52.504;13.498;2023-08-30T07:23:49;17.90;99.90
40808;DHT22;26523;52.504;13.498;2023-08-30T07:26:15;18.10;99.90
40808;DHT22;26523;52.504;13.498;2023-08-30T07:28:42;18.10;99.90
40808;DHT22;26523;52.504;13.498;2023-08-30T07:31:08;18.10;99.90
40808;DHT22;26523;52.504;13.498;2023-08-30T07:33:36;18.20;99.90
40808;DHT22;26523;52.504;13.498;2023-08-30T07:36:05;18.40;99.90
40808;DHT22;26523;52.504;13.498;2023-08-30T07:38:31;18.60;99.90
40808;DHT22;26523;52.504;13.498;2023-08-30T07:40:57;18.60;99.90
40808;DHT22;26523;52.504;13.498;2023-08-30T07:43:23;18.70;99.90
40808;DHT22;26523;52.504;13.498;2023-08-30T07:45:49;18.80;99.90
40808;DHT22;26523;52.504;13.498;2023-08-30T07:48:14;18.80;99.90
40808;DHT22;26523;52.504;13.498;2023-08-30T07:50:40;18.90;99.90
40808;DHT22;26523;52.504;13.498;2023-08-30T07:53:05;18.90;99.90
40808;DHT22;26523;52.504;13.498;2023-08-30T07:55:31;19.00;99.90
40808;DHT22;26523;52.504;13.498;2023-08-30T07:57:57;19.10;99.90
40808;DHT22;26523;52.504;13.498;2023-08-30T08:00:22;19.10;99.90
40808;DHT22;26523;52.504;13.498;2023-08-30T08:02:48;19.10;99.90
40808;DHT22;26523;52.504;13.498;2023-08-30T08:05:14;19.00;99.90
40808;DHT22;26523;52.504;13.498;2023-08-30T08:07:42;18.90;99.90
40808;DHT22;26523;52.504;13.498;2023-08-30T08:10:08;18.80;99.90
40808;DHT22;26523;52.504;13.498;2023-08-30T08:12:35;18.80;99.90
40808;DHT22;26523;52.504;13.498;2023-08-30T08:15:03;18.80;99.90
40808;DHT22;26523;52.504;13.498;2023-08-30T08:17:29;18.70;99.90
40808;DHT22;26523;52.504;13.498;2023-08-30T08:19:54;18.60;99.90
40808;DHT22;26523;52.504;13.498;2023-08-30T08:22:23;18.60;99.90
40808;DHT22;26523;52.504;13.498;2023-08-30T08:24:49;18.70;99.90
40808;DHT22;26523;52.504;13.498;2023-08-30T08:27:17;18.60;99.90
40808;DHT22;26523;52.504;13.498;2023-08-30T08:29:42;18.60;99.90
40808;DHT22;26523;52.504;13.498;2023-08-30T08:32:08;18.40;99.90
40808;DHT22;26523;52.504;13.498;2023-08-30T08:34:34;18.40;99.90
40808;DHT22;26523;52.504;13.498;2023-08-30T08:36:59;18.40;99.90
40808;DHT22;26523;52.504;13.498;2023-08-30T08:39:25;18.40;99.90
40808;DHT22;26523;52.504;13.498;2023-08-30T08:41:51;18.50;99.90
40808;DHT22;26523;52.504;13.498;2023-08-30T08:44:19;18.60;99.90
40808;DHT22;26523;52.504;13.498;2023-08-30T08:46:47;18.70;99.90
40808;DHT22;26523;52.504;13.498;2023-08-30T08:49:14;19.00;99.90
40808;DHT22;26523;52.504;13.498;2023-08-30T08:51:41;19.10;99.90
40808;DHT22;26523;52.504;13.498;2023-08-30T08:54:08;19.40;99.90
40808;DHT22;26523;52.504;13.498;2023-08-30T08:56:36;19.70;99.90
40808;DHT22;26523;52.504;13.498;2023-08-30T08:59:02;20.00;99.90
40808;DHT22;26523;52.504;13.498;2023-08-30T09:01:28;20.20;99.90
40808;DHT22;26523;52.504;13.498;2023-08-30T09:03:55;20.70;99.90
40808;DHT22;26523;52.504;13.498;2023-08-30T09:06:22;21.00;99.90
40808;DHT22;26523;52.504;13.498;2023-08-30T09:08:48;21.20;99.90
40808;DHT22;26523;52.504;13.498;2023-08-30T09:11:15;21.70;99.90
40808;DHT22;26523;52.504;13.498;2023-08-30T09:13:43;22.00;99.90
40808;DHT22;26523;52.504;13.498;2023-08-30T09:16:15;22.50;99.90
40808;DHT22;26523;52.504;13.498;2023-08-30T09:18:44;23.10;99.90
40808;DHT22;26523;52.504;13.498;2023-08-30T09:21:11;23.30;99.90
40808;DHT22;26523;52.504;13.498;2023-08-30T09:23:37;23.20;99.90
40808;DHT22;26523;52.504;13.498;2023-08-30T09:26:04;23.00;99.90
40808;DHT22;26523;52.504;13.498;2023-08-30T09:28:30;22.60;99.90
40808;DHT22;26523;52.504;13.498;2023-08-30T09:30:58;22.40;99.90
40808;DHT22;26523;52.504;13.498;2023-08-30T09:33:32;22.10;99.90
40808;DHT22;26523;52.504;13.498;2023-08-30T09:35:58;22.10;99.90
40808;DHT22;26523;52.504;13.498;2023-08-30T09:38:25;22.00;99.90
40808;DHT22;26523;52.504;13.498;2023-08-30T09:40:51;21.90;99.90
40808;DHT22;26523;52.504;13.498;2023-08-30T09:43:21;21.80;99.90
40808;DHT22;26523;52.504;13.498;2023-08-30T09:45:52;21.60;99.90
40808;DHT22;26523;52.504;13.498;2023-08-30T09:48:21;21.40;99.90
40808;DHT22;26523;52.504;13.498;2023-08-30T09:50:53;21.30;99.90
40808;DHT22;26523;52.504;13.498;2023-08-30T09:53:21;21.10;99.90
40808;DHT22;26523;52.504;13.498;2023-08-30T09:55:51;21.00;99.90
40808;DHT22;26523;52.504;13.498;2023-08-30T09:58:18;20.80;99.90
40808;DHT22;26523;52.504;13.498;2023-08-30T10:00:46;20.70;99.90
40808;DHT22;26523;52.504;13.498;2023-08-30T10:03:11;20.70;99.90
40808;DHT22;26523;52.504;13.498;2023-08-30T10:05:39;20.80;99.90
40808;DHT22;26523;52.504;13.498;2023-08-30T10:08:07;20.80;99.90
40808;DHT22;26523;52.504;13.498;2023-08-30T10:10:35;21.00;99.90
40808;DHT22;26523;52.504;13.498;2023-08-30T10:13:01;21.10;99.90
40808;DHT22;26523;52.504;13.498;2023-08-30T10:15:27;21.10;99.90
40808;DHT22;26523;52.504;13.498;2023-08-30T10:17:54;21.20;99.90
40808;DHT22;26523;52.504;13.498;2023-08-30T10:20:23;21.40;99.90
40808;DHT22;26523;52.504;13.498;2023-08-30T10:22:51;21.50;99.90
40808;DHT22;26523;52.504;13.498;2023-08-30T10:25:21;21.70;99.90
40808;DHT22;26523;52.504;13.498;2023-08-30T10:27:49;21.70;99.90
40808;DHT22;26523;52.504;13.498;2023-08-30T10:30:18;21.90;99.90
40808;DHT22;26523;52.504;13.498;2023-08-30T10:32:45;22.00;99.90
40808;DHT22;26523;52.504;13.498;2023-08-30T10:35:14;22.00;99.90
40808;DHT22;26523;52.504;13.498;2023-08-30T10:37:42;22.20;99.90
40808;DHT22;26523;52.504;13.498;2023-08-30T10:40:09;22.30;99.90
40808;DHT22;26523;52.504;13.498;2023-08-30T10:42:35;22.40;99.90
40808;DHT22;26523;52.504;13.498;2023-08-30T10:45:04;22.40;99.90
40808;DHT22;26523;52.504;13.498;2023-08-30T10:47:34;22.50;99.90
40808;DHT22;26523;52.504;13.498;2023-08-30T10:50:12;22.70;99.90
40808;DHT22;26523;52.504;13.498;2023-08-30T10:52:38;22.80;99.90
40808;DHT22;26523;52.504;13.498;2023-08-30T10:55:15;23.00;99.50
40808;DHT22;26523;52.504;13.498;2023-08-30T10:57:45;23.20;98.90
40808;DHT22;26523;52.504;13.498;2023-08-30T11:00:21;23.20;98.80
40808;DHT22;26523;52.504;13.498;2023-08-30T11:02:51;23.30;99.20
40808;DHT22;26523;52.504;13.498;2023-08-30T11:05:18;23.40;99.60
40808;DHT22;26523;52.504;13.498;2023-08-30T11:07:44;23.60;98.90
40808;DHT22;26523;52.504;13.498;2023-08-30T11:10:11;23.60;98.60
40808;DHT22;26523;52.504;13.498;2023-08-30T11:12:36;23.40;98.30
40808;DHT22;26523;52.504;13.498;2023-08-30T11:15:02;23.30;98.90
40808;DHT22;26523;52.504;13.498;2023-08-30T11:17:29;23.30;99.60
40808;DHT22;26523;52.504;13.498;2023-08-30T11:20:05;23.00;99.60
40808;DHT22;26523;52.504;13.498;2023-08-30T11:22:31;22.60;99.80
40808;DHT22;26523;52.504;13.498;2023-08-30T11:24:57;22.30;99.90
40808;DHT22;26523;52.504;13.498;2023-08-30T11:27:23;22.20;99.50
40808;DHT22;26523;52.504;13.498;2023-08-30T11:29:49;22.10;99.90
40808;DHT22;26523;52.504;13.498;2023-08-30T11:32:16;21.90;99.90
40808;DHT22;26523;52.504;13.498;2023-08-30T11:34:42;21.80;99.90
40808;DHT22;26523;52.504;13.498;2023-08-30T11:37:08;21.70;99.90
40808;DHT22;26523;52.504;13.498;2023-08-30T11:39:34;21.70;99.90
40808;DHT22;26523;52.504;13.498;2023-08-30T11:42:03;21.70;99.90
40808;DHT22;26523;52.504;13.498;2023-08-30T11:44:31;21.80;99.90
40808;DHT22;26523;52.504;13.498;2023-08-30T11:47:00;21.90;99.90
40808;DHT22;26523;52.504;13.498;2023-08-30T11:49:28;21.90;99.90
40808;DHT22;26523;52.504;13.498;2023-08-30T11:51:55;21.90;99.90
40808;DHT22;26523;52.504;13.498;2023-08-30T11:54:23;21.90;99.90
40808;DHT22;26523;52.504;13.498;2023-08-30T11:56:50;21.90;99.90
40808;DHT22;26523;52.504;13.498;2023-08-30T11:59:20;21.90;99.90
40808;DHT22;26523;52.504;13.498;2023-08-30T12:01:46;21.80;99.90
40808;DHT22;26523;52.504;13.498;2023-08-30T12:04:12;21.90;99.90
40808;DHT22;26523;52.504;13.498;2023-08-30T12:06:38;21.90;99.40
40808;DHT22;26523;52.504;13.498;2023-08-30T12:09:03;21.80;99.80
40808;DHT22;26523;52.504;13.498;2023-08-30T12:11:32;21.80;99.20
40808;DHT22;26523;52.504;13.498;2023-08-30T12:14:04;21.80;98.90
40808;DHT22;26523;52.504;13.498;2023-08-30T12:16:30;21.80;99.30
40808;DHT22;26523;52.504;13.498;2023-08-30T12:19:07;21.80;99.60
40808;DHT22;26523;52.504;13.498;2023-08-30T12:21:42;21.70;99.30
40808;DHT22;26523;52.504;13.498;2023-08-30T12:24:08;21.60;99.50
40808;DHT22;26523;52.504;13.498;2023-08-30T12:26:33;21.60;99.30
40808;DHT22;26523;52.504;13.498;2023-08-30T12:28:59;21.60;99.60
40808;DHT22;26523;52.504;13.498;2023-08-30T12:31:26;21.60;99.60
40808;DHT22;26523;52.504;13.498;2023-08-30T12:33:55;21.60;99.90
40808;DHT22;26523;52.504;13.498;2023-08-30T12:36:23;21.70;99.80
40808;DHT22;26523;52.504;13.498;2023-08-30T12:38:50;21.70;99.90
40808;DHT22;26523;52.504;13.498;2023-08-30T12:41:15;21.80;99.90
40808;DHT22;26523;52.504;13.498;2023-08-30T12:43:41;21.80;99.90
40808;DHT22;26523;52.504;13.498;2023-08-30T12:46:07;21.70;99.50
40808;DHT22;26523;52.504;13.498;2023-08-30T12:48:33;21.60;99.20
40808;DHT22;26523;52.504;13.498;2023-08-30T12:50:58;21.60;99.30
40808;DHT22;26523;52.504;13.498;2023-08-30T12:53:25;21.50;99.50
40808;DHT22;26523;52.504;13.498;2023-08-30T12:55:51;21.40;99.30
40808;DHT22;26523;52.504;13.498;2023-08-30T12:58:18;21.30;99.90
40808;DHT22;26523;52.504;13.498;2023-08-30T13:00:43;21.30;99.90
40808;DHT22;26523;52.504;13.498;2023-08-30T13:03:10;21.30;99.40
40808;DHT22;26523;52.504;13.498;2023-08-30T13:05:36;21.20;99.90
40808;DHT22;26523;52.504;13.498;2023-08-30T13:08:02;21.10;99.90
40808;DHT22;26523;52.504;13.498;2023-08-30T13:10:28;21.00;99.60
40808;DHT22;26523;52.504;13.498;2023-08-30T13:12:53;21.00;99.90
40808;DHT22;26523;52.504;13.498;2023-08-30T13:15:19;21.10;99.90
40808;DHT22;26523;52.504;13.498;2023-08-30T13:17:45;21.20;99.90
40808;DHT22;26523;52.504;13.498;2023-08-30T13:20:11;21.30;99.90
40808;DHT22;26523;52.504;13.498;2023-08-30T13:22:38;21.60;99.90
40808;DHT22;26523;52.504;13.498;2023-08-30T13:25:04;21.80;99.90
40808;DHT22;26523;52.504;13.498;2023-08-30T13:27:30;22.10;99.60
40808;DHT22;26523;52.504;13.498;2023-08-30T13:29:55;22.30;99.40
40808;DHT22;26523;52.504;13.498;2023-08-30T13:32:21;22.50;98.80
40808;DHT22;26523;52.504;13.498;2023-08-30T13:34:47;22.60;98.50
40808;DHT22;26523;52.504;13.498;2023-08-30T13:37:14;22.50;97.90
40808;DHT22;26523;52.504;13.498;2023-08-30T13:39:40;22.40;98.20
40808;DHT22;26523;52.504;13.498;2023-08-30T13:42:07;22.30;98.30
40808;DHT22;26523;52.504;13.498;2023-08-30T13:44:35;22.30;97.00
40808;DHT22;26523;52.504;13.498;2023-08-30T13:47:05;22.20;97.80
40808;DHT22;26523;52.504;13.498;2023-08-30T13:49:32;22.20;98.00
40808;DHT22;26523;52.504;13.498;2023-08-30T13:51:58;22.20;97.50
40808;DHT22;26523;52.504;13.498;2023-08-30T13:54:25;22.10;98.00
40808;DHT22;26523;52.504;13.498;2023-08-30T13:56:51;22.10;98.60
40808;DHT22;26523;52.504;13.498;2023-08-30T13:59:16;22.00;98.90
40808;DHT22;26523;52.504;13.498;2023-08-30T14:01:42;21.90;98.80
40808;DHT22;26523;52.504;13.498;2023-08-30T14:04:09;21.90;99.10
40808;DHT22;26523;52.504;13.498;2023-08-30T14:06:36;21.90;99.00
40808;DHT22;26523;52.504;13.498;2023-08-30T14:09:01;21.90;99.10
40808;DHT22;26523;52.504;13.498;2023-08-30T14:11:30;21.80;97.90
40808;DHT22;26523;52.504;13.498;2023-08-30T14:13:56;21.70;98.40
40808;DHT22;26523;52.504;13.498;2023-08-30T14:16:22;21.70;99.20
40808;DHT22;26523;52.504;13.498;2023-08-30T14:18:47;21.60;99.20
40808;DHT22;26523;52.504;13.498;2023-08-30T14:21:14;21.60;99.90
40808;DHT22;26523;52.504;13.498;2023-08-30T14:23:40;21.70;99.40
40808;DHT22;26523;52.504;13.498;2023-08-30T14:26:06;21.90;98.30
40808;DHT22;26523;52.504;13.498;2023-08-30T14:28:36;21.90;98.50
40808;DHT22;26523;52.504;13.498;2023-08-30T14:31:02;22.10;97.80
40808;DHT22;26523;52.504;13.498;2023-08-30T14:33:31;22.00;97.10
40808;DHT22;26523;52.504;13.498;2023-08-30T14:35:57;22.00;97.30
40808;DHT22;26523;52.504;13.498;2023-08-30T14:38:23;22.00;98.00
40808;DHT22;26523;52.504;13.498;2023-08-30T14:40:59;21.80;98.10
40808;DHT22;26523;52.504;13.498;2023-08-30T14:43:25;21.80;98.30
40808;DHT22;26523;52.504;13.498;2023-08-30T14:46:02;21.70;98.50
40808;DHT22;26523;52.504;13.498;2023-08-30T14:48:28;21.60;98.50
40808;DHT22;26523;52.504;13.498;2023-08-30T14:51:00;21.50;97.90
40808;DHT22;26523;52.504;13.498;2023-08-30T14:53:26;21.50;98.70
40808;DHT22;26523;52.504;13.498;2023-08-30T14:55:52;21.40;98.80
40808;DHT22;26523;52.504;13.498;2023-08-30T14:58:18;21.40;98.40
40808;DHT22;26523;52.504;13.498;2023-08-30T15:00:47;21.40;97.90
40808;DHT22;26523;52.504;13.498;2023-08-30T15:03:12;21.30;98.80
40808;DHT22;26523;52.504;13.498;2023-08-30T15:05:38;21.30;98.30
40808;DHT22;26523;52.504;13.498;2023-08-30T15:08:05;21.30;98.70
40808;DHT22;26523;52.504;13.498;2023-08-30T15:10:31;21.20;98.60
40808;DHT22;26523;52.504;13.498;2023-08-30T15:12:56;21.00;98.90
40808;DHT22;26523;52.504;13.498;2023-08-30T15:15:22;20.90;99.50
40808;DHT22;26523;52.504;13.498;2023-08-30T15:17:47;20.70;99.20
40808;DHT22;26523;52.504;13.498;2023-08-30T15:20:16;20.60;99.70
40808;DHT22;26523;52.504;13.498;2023-08-30T15:22:42;20.40;99.90